Snav Lazio — IBUH — position and weather

sailwx.info

Track history (hours):
 
Tides and Currents Weather Stations Pressure Air Temp Water Temp Dewpoint Dewpoint Depression Visibility Wind Speed Wind Dir Waves Ship Positions

Snav Lazio

Last reported at 2015-Sep-02 04:31 UTC. Time now 2015-Sep-02 08:35 UTC.
Position N 40°50' E 014°16'.

Length 162 m; draft 6 m.

Type: Ship (hazmat cat A). MMSI: 247163100.

Date/timePositionNaut miles runAvg speedWind from/ knotsBaromVisibWave heightAir tempDewpointWater temp
2015-Sep-02 04:31N 40°50' E 014°16'1616.4
2015-Sep-02 03:33N 40°35' E 014°10'5718.1
2015-Sep-02 00:25N 39°40' E 013°52'1718.1
2015-Sep-01 23:27N 39°23' E 013°47'5218.1
2015-Sep-01 20:33N 38°32' E 013°32'1818.0
2015-Sep-01 19:33N 38°14' E 013°29'8 7.6
2015-Sep-01 18:30N 38°08' E 013°22'0 0.0
2015-Sep-01 17:30N 38°08' E 013°22'0 0.0
2015-Sep-01 16:30N 38°08' E 013°22'0 0.0
2015-Sep-01 15:30N 38°08' E 013°22'0 0.0
2015-Sep-01 14:33N 38°08' E 013°22'0 0.0
2015-Sep-01 13:33N 38°08' E 013°22'0 0.0
2015-Sep-01 12:33N 38°08' E 013°22'0 0.0
2015-Sep-01 11:30N 38°08' E 013°22'0 0.0
2015-Sep-01 10:21N 38°08' E 013°22'0 0.0
2015-Sep-01 09:24N 38°08' E 013°22'0 0.0
2015-Sep-01 08:24N 38°08' E 013°22'0 0.0
2015-Sep-01 07:24N 38°08' E 013°22'0 0.0
2015-Sep-01 06:27N 38°08' E 013°22'0 0.0
2015-Sep-01 05:24N 38°08' E 013°22'0 0.0
2015-Sep-01 04:31N 38°08' E 013°22'8 8.7
2015-Sep-01 03:33N 38°16' E 013°27'1918.5
2015-Sep-01 02:33N 38°34' E 013°32'1818.1
2015-Sep-01 01:33N 38°51' E 013°38'1916.6
2015-Sep-01 00:25N 39°10' E 013°43'1517.4
2015-Aug-31 23:33N 39°24' E 013°47'2317.7
2015-Aug-31 22:15N 39°47' E 013°54'1417.8
2015-Aug-31 21:29N 39°60' E 013°58'2417.6
2015-Aug-31 20:07N 40°24' E 014°04'1717.1
2015-Aug-31 19:07N 40°40' E 014°12'916.8
2015-Aug-31 18:33N 40°48' E 014°16'2 0.3
2015-Aug-31 11:33N 40°50' E 014°15'0 0.0
2015-Aug-31 10:33N 40°50' E 014°15'0 0.0
2015-Aug-31 09:33N 40°50' E 014°15'0 0.0
2015-Aug-31 08:33N 40°50' E 014°15'0 0.0
2015-Aug-31 07:33N 40°50' E 014°15'7 6.7
2015-Aug-31 06:33N 40°44' E 014°14'1818.3
2015-Aug-31 05:34N 40°27' E 014°06'1818.2
2015-Aug-31 04:33N 40°09' E 014°00'2118.0
2015-Aug-31 03:24N 39°48' E 013°54'1518.0
2015-Aug-31 02:33N 39°34' E 013°50'1818.3
2015-Aug-31 01:34N 39°16' E 013°45'1918.6
2015-Aug-31 00:34N 38°58' E 013°39'2018.9
2015-Aug-30 23:29N 38°38' E 013°34'1718.5
2015-Aug-30 22:34N 38°21' E 013°29'1414.5
2015-Aug-30 21:33N 38°08' E 013°22'0 0.2
2015-Aug-30 20:31N 38°08' E 013°22'0 0.0
2015-Aug-30 19:31N 38°08' E 013°22'1 1.4
2015-Aug-30 18:34N 38°07' E 013°23'1211.6
2015-Aug-30 17:33N 38°19' E 013°27'1918.8
2015-Aug-30 16:33N 38°37' E 013°32'1918.6
2015-Aug-30 15:33N 38°55' E 013°38'1918.7
2015-Aug-30 14:33N 39°13' E 013°43'1918.9
2015-Aug-30 13:33N 39°32' E 013°49'1919.4
2015-Aug-30 12:33N 39°50' E 013°56'1919.2
2015-Aug-30 11:33N 40°09' E 014°01'1919.0
2015-Aug-30 10:33N 40°28' E 014°06'1818.2
2015-Aug-30 09:33N 40°45' E 014°14'6 5.7
2015-Aug-30 08:33N 40°50' E 014°15'0 0.0
2015-Aug-30 07:32N 40°50' E 014°15'3 2.9
2015-Aug-30 06:33N 40°48' E 014°17'1918.6
2015-Aug-30 05:33N 40°31' E 014°07'1818.5
2015-Aug-30 04:33N 40°13' E 014°01'1818.3
2015-Aug-30 03:33N 39°55' E 013°56'1818.3
2015-Aug-30 02:33N 39°37' E 013°51'1918.6
2015-Aug-30 01:33N 39°19' E 013°46'1918.7
2015-Aug-30 00:33N 39°01' E 013°40'1918.8
2015-Aug-29 23:33N 38°42' E 013°36'1918.6
2015-Aug-29 22:33N 38°24' E 013°31'1817.7
2015-Aug-29 21:33N 38°07' E 013°23'1 1.4
2015-Aug-29 20:32N 38°08' E 013°22'0 0.0
2015-Aug-29 19:32N 38°08' E 013°22'0 0.0
2015-Aug-29 18:32N 38°08' E 013°22'1 0.6
2015-Aug-29 17:33N 38°08' E 013°22'1515.0
2015-Aug-29 16:34N 38°22' E 013°29'1918.5
2015-Aug-29 15:33N 38°40' E 013°34'1818.4
2015-Aug-29 14:34N 38°58' E 013°38'1918.6
2015-Aug-29 13:34N 39°16' E 013°44'1918.8
2015-Aug-29 12:33N 39°34' E 013°50'1919.0
2015-Aug-29 11:34N 39°53' E 013°56'1919.1
2015-Aug-29 10:34N 40°11' E 014°02'1918.7
2015-Aug-29 09:34N 40°29' E 014°07'1818.2
2015-Aug-29 08:33N 40°47' E 014°15'3 1.1
2015-Aug-29 05:33N 40°49' E 014°17'1817.6
2015-Aug-29 04:33N 40°33' E 014°08'1817.9
2015-Aug-29 03:34N 40°16' E 014°02'1817.8
2015-Aug-29 02:33N 39°59' E 013°56'1817.7
2015-Aug-29 01:33N 39°41' E 013°52'1818.0
2015-Aug-29 00:33N 39°24' E 013°47'2118.3
2015-Aug-28 23:26N 39°04' E 013°41'1618.3
2015-Aug-28 22:33N 38°48' E 013°36'2018.4
2015-Aug-28 21:28N 38°29' E 013°30'1718.2
2015-Aug-28 20:33N 38°12' E 013°26'5 5.3
2015-Aug-28 19:31N 38°08' E 013°22'0 0.0
2015-Aug-28 18:31N 38°08' E 013°22'0 0.0
2015-Aug-28 17:31N 38°08' E 013°22'1 1.4
2015-Aug-28 16:33N 38°07' E 013°23'1817.5
2015-Aug-28 15:33N 38°24' E 013°29'7518.5
2015-Aug-28 11:29N 39°37' E 013°51'1718.7
2015-Aug-28 10:33N 39°54' E 013°56'1918.8
2015-Aug-28 09:31N 40°13' E 014°02'1818.5
2015-Aug-28 08:34N 40°31' E 014°08'1818.2
2015-Aug-28 07:33N 40°48' E 014°16'1 0.3
2015-Aug-28 04:33N 40°48' E 014°17'1414.3
2015-Aug-28 03:34N 40°35' E 014°09'3817.8
2015-Aug-28 01:24N 39°58' E 013°57'5417.9
2015-Aug-27 22:23N 39°05' E 013°41'3418.3
2015-Aug-27 20:31N 38°32' E 013°34'1717.9
2015-Aug-27 19:34N 38°15' E 013°28'9 7.7
2015-Aug-27 18:26N 38°08' E 013°22'0 0.0
2015-Aug-27 17:23N 38°08' E 013°22'0 0.0
2015-Aug-27 16:29N 38°08' E 013°22'0 0.0
2015-Aug-27 15:33N 38°08' E 013°22'0 0.0
2015-Aug-27 14:33N 38°08' E 013°22'0 0.0
2015-Aug-27 13:33N 38°08' E 013°22'0 0.0
2015-Aug-27 12:33N 38°08' E 013°22'0 0.0
2015-Aug-27 11:33N 38°08' E 013°22'0 0.0
2015-Aug-27 10:33N 38°08' E 013°22'0 0.0
2015-Aug-27 09:33N 38°08' E 013°22'0 0.0
2015-Aug-27 08:33N 38°08' E 013°22'0 0.0
2015-Aug-27 07:33N 38°08' E 013°22'0 0.0
2015-Aug-27 06:33N 38°08' E 013°22'0 0.0
2015-Aug-27 05:33N 38°08' E 013°22'0 0.0
2015-Aug-27 04:33N 38°08' E 013°22'6 6.2
2015-Aug-27 03:34N 38°13' E 013°26'12717.6
2015-Aug-26 20:20N 40°17' E 014°03'1417.8
2015-Aug-26 19:33N 40°31' E 014°06'1717.1
2015-Aug-26 18:34N 40°46' E 014°15'1 0.1
2015-Aug-26 04:33N 40°47' E 014°16'1717.4
2015-Aug-26 03:33N 40°31' E 014°08'12017.2
2015-Aug-25 20:33N 38°34' E 013°33'1717.2
2015-Aug-25 19:33N 38°17' E 013°29'11 9.5
2015-Aug-25 18:26N 38°08' E 013°22'0 0.0
2015-Aug-25 17:30N 38°08' E 013°22'0 0.0
2015-Aug-25 16:32N 38°08' E 013°22'0 0.0
2015-Aug-25 15:32N 38°08' E 013°22'0 0.0
2015-Aug-25 14:32N 38°08' E 013°22'0 0.0
2015-Aug-25 13:29N 38°08' E 013°22'0 0.0
2015-Aug-25 12:32N 38°08' E 013°22'0 0.0
2015-Aug-25 11:32N 38°08' E 013°22'0 0.0
2015-Aug-25 10:32N 38°08' E 013°22'0 0.0
2015-Aug-25 09:20N 38°08' E 013°22'0 0.0
2015-Aug-25 08:11N 38°08' E 013°22'0 0.0
2015-Aug-25 07:26N 38°08' E 013°22'0 0.0
2015-Aug-25 06:26N 38°08' E 013°22'0 0.0
2015-Aug-25 05:29N 38°08' E 013°22'2 1.6
2015-Aug-25 04:33N 38°07' E 013°24'1515.2
2015-Aug-25 03:33N 38°22' E 013°28'1716.6
2015-Aug-25 02:34N 38°38' E 013°33'1716.6
2015-Aug-25 01:34N 38°54' E 013°38'2316.4
2015-Aug-25 00:08N 39°17' E 013°45'4416.9
2015-Aug-24 21:33N 39°60' E 013°58'1816.9
2015-Aug-24 20:28N 40°17' E 014°02'1516.8
2015-Aug-24 19:33N 40°33' E 014°06'1616.5
2015-Aug-24 18:34N 40°47' E 014°16'3 0.6
2015-Aug-24 13:32N 40°50' E 014°15'0 0.0
2015-Aug-24 12:23N 40°50' E 014°15'0 0.0
2015-Aug-24 11:32N 40°50' E 014°15'0 0.0
2015-Aug-24 10:20N 40°50' E 014°15'0 0.0
2015-Aug-24 09:32N 40°50' E 014°15'0 0.0
2015-Aug-24 08:32N 40°50' E 014°15'3 2.6
2015-Aug-24 07:34N 40°48' E 014°17'1818.1
2015-Aug-24 06:34N 40°31' E 014°08'3917.9
2015-Aug-24 04:21N 39°53' E 013°55'1817.7
2015-Aug-24 03:19N 39°35' E 013°49'1418.0
2015-Aug-24 02:33N 39°22' E 013°46'1818.3
2015-Aug-24 01:33N 39°04' E 013°41'2318.1
2015-Aug-24 00:18N 38°41' E 013°37'1317.9
2015-Aug-23 23:33N 38°28' E 013°34'1717.4
2015-Aug-23 22:34N 38°12' E 013°28'6 5.8
2015-Aug-23 21:33N 38°08' E 013°22'0 0.0
2015-Aug-23 20:34N 38°08' E 013°22'0 0.0
2015-Aug-23 19:33N 38°08' E 013°22'6 6.0
2015-Aug-23 18:34N 38°13' E 013°26'1817.8
2015-Aug-23 17:33N 38°31' E 013°30'1817.7
2015-Aug-23 16:33N 38°48' E 013°35'1817.9
2015-Aug-23 15:34N 39°05' E 013°40'1817.8
2015-Aug-23 14:33N 39°23' E 013°44'5818.2
2015-Aug-23 11:22N 40°19' E 014°03'1518.2
2015-Aug-23 10:34N 40°33' E 014°08'1717.3
2015-Aug-23 09:33N 40°49' E 014°17'1 0.3
2015-Aug-23 07:33N 40°49' E 014°17'1817.9
2015-Aug-23 06:33N 40°32' E 014°07'  
Track history (hours):
 
Tides and Currents Weather Stations Pressure Air Temp Water Temp Dewpoint Dewpoint Depression Visibility Wind Speed Wind Dir Waves Ship Positions

Snav Lazio

Last reported at 2015-Sep-02 04:31 UTC. Time now 2015-Sep-02 08:35 UTC.
Position N 40°50' E 014°16'.

Length 162 m; draft 6 m.

Type: Ship (hazmat cat A). MMSI: 247163100.

Date/timePositionNaut miles runAvg speedWind from/ knotsBaromVisibWave heightAir tempDewpointWater temp
2015-Sep-02 04:31N 40°50' E 014°16'1616.4
2015-Sep-02 03:33N 40°35' E 014°10'5718.1
2015-Sep-02 00:25N 39°40' E 013°52'1718.1
2015-Sep-01 23:27N 39°23' E 013°47'5218.1
2015-Sep-01 20:33N 38°32' E 013°32'1818.0
2015-Sep-01 19:33N 38°14' E 013°29'8 7.6
2015-Sep-01 18:30N 38°08' E 013°22'0 0.0
2015-Sep-01 17:30N 38°08' E 013°22'0 0.0
2015-Sep-01 16:30N 38°08' E 013°22'0 0.0
2015-Sep-01 15:30N 38°08' E 013°22'0 0.0
2015-Sep-01 14:33N 38°08' E 013°22'0 0.0
2015-Sep-01 13:33N 38°08' E 013°22'0 0.0
2015-Sep-01 12:33N 38°08' E 013°22'0 0.0
2015-Sep-01 11:30N 38°08' E 013°22'0 0.0
2015-Sep-01 10:21N 38°08' E 013°22'0 0.0
2015-Sep-01 09:24N 38°08' E 013°22'0 0.0
2015-Sep-01 08:24N 38°08' E 013°22'0 0.0
2015-Sep-01 07:24N 38°08' E 013°22'0 0.0
2015-Sep-01 06:27N 38°08' E 013°22'0 0.0
2015-Sep-01 05:24N 38°08' E 013°22'0 0.0
2015-Sep-01 04:31N 38°08' E 013°22'8 8.7
2015-Sep-01 03:33N 38°16' E 013°27'1918.5
2015-Sep-01 02:33N 38°34' E 013°32'1818.1
2015-Sep-01 01:33N 38°51' E 013°38'1916.6
2015-Sep-01 00:25N 39°10' E 013°43'1517.4
2015-Aug-31 23:33N 39°24' E 013°47'2317.7
2015-Aug-31 22:15N 39°47' E 013°54'1417.8
2015-Aug-31 21:29N 39°60' E 013°58'2417.6
2015-Aug-31 20:07N 40°24' E 014°04'1717.1
2015-Aug-31 19:07N 40°40' E 014°12'916.8
2015-Aug-31 18:33N 40°48' E 014°16'2 0.3
2015-Aug-31 11:33N 40°50' E 014°15'0 0.0
2015-Aug-31 10:33N 40°50' E 014°15'0 0.0
2015-Aug-31 09:33N 40°50' E 014°15'0 0.0
2015-Aug-31 08:33N 40°50' E 014°15'0 0.0
2015-Aug-31 07:33N 40°50' E 014°15'7 6.7
2015-Aug-31 06:33N 40°44' E 014°14'1818.3
2015-Aug-31 05:34N 40°27' E 014°06'1818.2
2015-Aug-31 04:33N 40°09' E 014°00'2118.0
2015-Aug-31 03:24N 39°48' E 013°54'1518.0
2015-Aug-31 02:33N 39°34' E 013°50'1818.3
2015-Aug-31 01:34N 39°16' E 013°45'1918.6
2015-Aug-31 00:34N 38°58' E 013°39'2018.9
2015-Aug-30 23:29N 38°38' E 013°34'1718.5
2015-Aug-30 22:34N 38°21' E 013°29'1414.5
2015-Aug-30 21:33N 38°08' E 013°22'0 0.2
2015-Aug-30 20:31N 38°08' E 013°22'0 0.0
2015-Aug-30 19:31N 38°08' E 013°22'1 1.4
2015-Aug-30 18:34N 38°07' E 013°23'1211.6
2015-Aug-30 17:33N 38°19' E 013°27'1918.8
2015-Aug-30 16:33N 38°37' E 013°32'1918.6
2015-Aug-30 15:33N 38°55' E 013°38'1918.7
2015-Aug-30 14:33N 39°13' E 013°43'1918.9
2015-Aug-30 13:33N 39°32' E 013°49'1919.4
2015-Aug-30 12:33N 39°50' E 013°56'1919.2
2015-Aug-30 11:33N 40°09' E 014°01'1919.0
2015-Aug-30 10:33N 40°28' E 014°06'1818.2
2015-Aug-30 09:33N 40°45' E 014°14'6 5.7
2015-Aug-30 08:33N 40°50' E 014°15'0 0.0
2015-Aug-30 07:32N 40°50' E 014°15'3 2.9
2015-Aug-30 06:33N 40°48' E 014°17'1918.6
2015-Aug-30 05:33N 40°31' E 014°07'1818.5
2015-Aug-30 04:33N 40°13' E 014°01'1818.3
2015-Aug-30 03:33N 39°55' E 013°56'1818.3
2015-Aug-30 02:33N 39°37' E 013°51'1918.6
2015-Aug-30 01:33N 39°19' E 013°46'1918.7
2015-Aug-30 00:33N 39°01' E 013°40'1918.8
2015-Aug-29 23:33N 38°42' E 013°36'1918.6
2015-Aug-29 22:33N 38°24' E 013°31'1817.7
2015-Aug-29 21:33N 38°07' E 013°23'1 1.4
2015-Aug-29 20:32N 38°08' E 013°22'0 0.0
2015-Aug-29 19:32N 38°08' E 013°22'0 0.0
2015-Aug-29 18:32N 38°08' E 013°22'1 0.6
2015-Aug-29 17:33N 38°08' E 013°22'1515.0
2015-Aug-29 16:34N 38°22' E 013°29'1918.5
2015-Aug-29 15:33N 38°40' E 013°34'1818.4
2015-Aug-29 14:34N 38°58' E 013°38'1918.6
2015-Aug-29 13:34N 39°16' E 013°44'1918.8
2015-Aug-29 12:33N 39°34' E 013°50'1919.0
2015-Aug-29 11:34N 39°53' E 013°56'1919.1
2015-Aug-29 10:34N 40°11' E 014°02'1918.7
2015-Aug-29 09:34N 40°29' E 014°07'1818.2
2015-Aug-29 08:33N 40°47' E 014°15'3 1.1
2015-Aug-29 05:33N 40°49' E 014°17'1817.6
2015-Aug-29 04:33N 40°33' E 014°08'1817.9
2015-Aug-29 03:34N 40°16' E 014°02'1817.8
2015-Aug-29 02:33N 39°59' E 013°56'1817.7
2015-Aug-29 01:33N 39°41' E 013°52'1818.0
2015-Aug-29 00:33N 39°24' E 013°47'2118.3
2015-Aug-28 23:26N 39°04' E 013°41'1618.3
2015-Aug-28 22:33N 38°48' E 013°36'2018.4
2015-Aug-28 21:28N 38°29' E 013°30'1718.2
2015-Aug-28 20:33N 38°12' E 013°26'5 5.3
2015-Aug-28 19:31N 38°08' E 013°22'0 0.0
2015-Aug-28 18:31N 38°08' E 013°22'0 0.0
2015-Aug-28 17:31N 38°08' E 013°22'1 1.4
2015-Aug-28 16:33N 38°07' E 013°23'1817.5
2015-Aug-28 15:33N 38°24' E 013°29'7518.5
2015-Aug-28 11:29N 39°37' E 013°51'1718.7
2015-Aug-28 10:33N 39°54' E 013°56'1918.8
2015-Aug-28 09:31N 40°13' E 014°02'1818.5
2015-Aug-28 08:34N 40°31' E 014°08'1818.2
2015-Aug-28 07:33N 40°48' E 014°16'1 0.3
2015-Aug-28 04:33N 40°48' E 014°17'1414.3
2015-Aug-28 03:34N 40°35' E 014°09'3817.8
2015-Aug-28 01:24N 39°58' E 013°57'5417.9
2015-Aug-27 22:23N 39°05' E 013°41'3418.3
2015-Aug-27 20:31N 38°32' E 013°34'1717.9
2015-Aug-27 19:34N 38°15' E 013°28'9 7.7
2015-Aug-27 18:26N 38°08' E 013°22'0 0.0
2015-Aug-27 17:23N 38°08' E 013°22'0 0.0
2015-Aug-27 16:29N 38°08' E 013°22'0 0.0
2015-Aug-27 15:33N 38°08' E 013°22'0 0.0
2015-Aug-27 14:33N 38°08' E 013°22'0 0.0
2015-Aug-27 13:33N 38°08' E 013°22'0 0.0
2015-Aug-27 12:33N 38°08' E 013°22'0 0.0
2015-Aug-27 11:33N 38°08' E 013°22'0 0.0
2015-Aug-27 10:33N 38°08' E 013°22'0 0.0
2015-Aug-27 09:33N 38°08' E 013°22'0 0.0
2015-Aug-27 08:33N 38°08' E 013°22'0 0.0
2015-Aug-27 07:33N 38°08' E 013°22'0 0.0
2015-Aug-27 06:33N 38°08' E 013°22'0 0.0
2015-Aug-27 05:33N 38°08' E 013°22'0 0.0
2015-Aug-27 04:33N 38°08' E 013°22'6 6.2
2015-Aug-27 03:34N 38°13' E 013°26'12717.6
2015-Aug-26 20:20N 40°17' E 014°03'1417.8
2015-Aug-26 19:33N 40°31' E 014°06'1717.1
2015-Aug-26 18:34N 40°46' E 014°15'1 0.1
2015-Aug-26 04:33N 40°47' E 014°16'1717.4
2015-Aug-26 03:33N 40°31' E 014°08'12017.2
2015-Aug-25 20:33N 38°34' E 013°33'1717.2
2015-Aug-25 19:33N 38°17' E 013°29'11 9.5
2015-Aug-25 18:26N 38°08' E 013°22'0 0.0
2015-Aug-25 17:30N 38°08' E 013°22'0 0.0
2015-Aug-25 16:32N 38°08' E 013°22'0 0.0
2015-Aug-25 15:32N 38°08' E 013°22'0 0.0
2015-Aug-25 14:32N 38°08' E 013°22'0 0.0
2015-Aug-25 13:29N 38°08' E 013°22'0 0.0
2015-Aug-25 12:32N 38°08' E 013°22'0 0.0
2015-Aug-25 11:32N 38°08' E 013°22'0 0.0
2015-Aug-25 10:32N 38°08' E 013°22'0 0.0
2015-Aug-25 09:20N 38°08' E 013°22'0 0.0
2015-Aug-25 08:11N 38°08' E 013°22'0 0.0
2015-Aug-25 07:26N 38°08' E 013°22'0 0.0
2015-Aug-25 06:26N 38°08' E 013°22'0 0.0
2015-Aug-25 05:29N 38°08' E 013°22'2 1.6
2015-Aug-25 04:33N 38°07' E 013°24'1515.2
2015-Aug-25 03:33N 38°22' E 013°28'1716.6
2015-Aug-25 02:34N 38°38' E 013°33'1716.6
2015-Aug-25 01:34N 38°54' E 013°38'2316.4
2015-Aug-25 00:08N 39°17' E 013°45'4416.9
2015-Aug-24 21:33N 39°60' E 013°58'1816.9
2015-Aug-24 20:28N 40°17' E 014°02'1516.8
2015-Aug-24 19:33N 40°33' E 014°06'1616.5
2015-Aug-24 18:34N 40°47' E 014°16'3 0.6
2015-Aug-24 13:32N 40°50' E 014°15'0 0.0
2015-Aug-24 12:23N 40°50' E 014°15'0 0.0
2015-Aug-24 11:32N 40°50' E 014°15'0 0.0
2015-Aug-24 10:20N 40°50' E 014°15'0 0.0
2015-Aug-24 09:32N 40°50' E 014°15'0 0.0
2015-Aug-24 08:32N 40°50' E 014°15'3 2.6
2015-Aug-24 07:34N 40°48' E 014°17'1818.1
2015-Aug-24 06:34N 40°31' E 014°08'3917.9
2015-Aug-24 04:21N 39°53' E 013°55'1817.7
2015-Aug-24 03:19N 39°35' E 013°49'1418.0
2015-Aug-24 02:33N 39°22' E 013°46'1818.3
2015-Aug-24 01:33N 39°04' E 013°41'2318.1
2015-Aug-24 00:18N 38°41' E 013°37'1317.9
2015-Aug-23 23:33N 38°28' E 013°34'1717.4
2015-Aug-23 22:34N 38°12' E 013°28'6 5.8
2015-Aug-23 21:33N 38°08' E 013°22'0 0.0
2015-Aug-23 20:34N 38°08' E 013°22'0 0.0
2015-Aug-23 19:33N 38°08' E 013°22'6 6.0
2015-Aug-23 18:34N 38°13' E 013°26'1817.8
2015-Aug-23 17:33N 38°31' E 013°30'1817.7
2015-Aug-23 16:33N 38°48' E 013°35'1817.9
2015-Aug-23 15:34N 39°05' E 013°40'1817.8
2015-Aug-23 14:33N 39°23' E 013°44'5818.2
2015-Aug-23 11:22N 40°19' E 014°03'1518.2
2015-Aug-23 10:34N 40°33' E 014°08'1717.3
2015-Aug-23 09:33N 40°49' E 014°17'1 0.3
2015-Aug-23 07:33N 40°49' E 014°17'1817.9
2015-Aug-23 06:33N 40°32' E 014°07'  

Dump ship's entire track history